Portada
METAR-TAF:

METAR-TAF

Aeroports :

Sion, Suïssa

latitud: 46-13N, longitud: 007-20E, altitud: 482 m

Observació

L'informe es va fer fa 38 minuts, a les 11:50 UTC
Vent 6 kt del Oest/Sud-Oest, variant entre Sud i Oest
Temperatura 26°C
Humitat 51%
Pressió 1015 hPa
Visibilitat 10 km o més
Escasses núvols a una alçada de 6000 ft

METAR: LSGS 291150Z 24006KT 170V280 9999 FEW060 26/15 Q1015

Hora: 14:28 (12:28 UTC)

Pronòstic

L'informe es va fer fa 1 hora i 3 minuts, a les 11:25 UTC
Pronòstic vàlid del 29 a les 12 UTC al 29 a les 21 UTC
Vent 3 kt amb direcció variable
Visibilitat 10 km o més
Escasses núvols a una alçada de 8000 ft
Evolucionant progressivament
l' 29 a les 12 UTC al 29 a les 14 UTC
Vent 13 kt del Oest
Evolucionant progressivament
l' 29 a les 18 UTC al 29 a les 20 UTC
Vent 3 kt amb direcció variable

TAF: LSGS 291125Z 2912/2921 VRB03KT 9999 FEW080 BECMG 2912/2914 27013KT BECMG 2918/2920 VRB03KT

Observacions i pronòstics meteorològics de més de 4000 aeroports (METAR i TAF).

Les estacions disponibles són els punts grocs i vermells al mapa.

Posi el ratolí al punt desitjat per veure el nom de l'estació.

Feu clic per veure les observacions i els pronòstics meteorològics.

Per canviar el mapa: feu clic els botons verds amb una creu de color negre per apropar; al botó verd amb un guió per allunyar la imatge; o en les fletxes verdes per a mapes adjacents.


METAR-TAF: